createdAt,value
2023-03-04T00:01:08.709Z,2.60
2023-03-04T00:06:11.018Z,2.60
2023-03-04T00:11:13.320Z,2.60
2023-03-04T00:16:15.814Z,2.60
2023-03-04T00:21:18.153Z,2.60
2023-03-04T00:26:20.527Z,2.60
2023-03-04T00:31:24.094Z,2.60
2023-03-04T00:36:27.017Z,2.60
2023-03-04T00:41:31.701Z,2.60
2023-03-04T00:46:34.244Z,2.60
2023-03-04T00:51:36.623Z,2.60
2023-03-04T00:56:39.032Z,2.60
2023-03-04T01:01:41.445Z,2.70
2023-03-04T01:06:43.783Z,2.70
2023-03-04T01:11:47.772Z,2.70
2023-03-04T01:16:50.932Z,2.70
2023-03-04T01:21:53.303Z,2.70
2023-03-04T01:26:58.548Z,2.70
2023-03-04T01:32:00.904Z,2.70
2023-03-04T01:37:03.337Z,2.70
2023-03-04T01:42:06.171Z,2.70
2023-03-04T01:47:09.666Z,2.80
2023-03-04T01:52:15.202Z,2.80
2023-03-04T01:57:20.207Z,2.70
2023-03-04T02:02:22.798Z,2.70
2023-03-04T02:07:25.110Z,2.70
2023-03-04T02:12:27.477Z,2.70
2023-03-04T02:17:29.876Z,2.70
2023-03-04T02:22:38.045Z,2.70
2023-03-04T02:27:40.531Z,2.60
2023-03-04T02:32:42.878Z,2.60
2023-03-04T02:37:45.780Z,2.70
2023-03-04T02:42:49.472Z,2.70
2023-03-04T02:47:51.901Z,2.70
2023-03-04T02:52:54.346Z,2.70
2023-03-04T02:57:56.852Z,2.70
2023-03-04T03:03:00.049Z,2.70
2023-03-04T03:08:02.592Z,2.70
2023-03-04T03:13:05.584Z,2.70
2023-03-04T03:18:10.758Z,2.70
2023-03-04T03:23:13.509Z,2.70
2023-03-04T03:28:15.888Z,2.70
2023-03-04T03:33:18.296Z,2.80
2023-03-04T03:38:20.952Z,2.70
2023-03-04T03:43:24.042Z,2.70
2023-03-04T03:48:26.376Z,2.70
2023-03-04T03:53:28.739Z,2.80
2023-03-04T03:58:31.042Z,2.80
2023-03-04T04:03:33.323Z,2.80
2023-03-04T04:08:35.672Z,2.80
2023-03-04T04:13:39.330Z,2.80
2023-03-04T04:18:41.781Z,2.80
2023-03-04T04:23:44.045Z,2.90
2023-03-04T04:28:46.438Z,2.80
2023-03-04T04:33:48.802Z,2.90
2023-03-04T04:38:51.112Z,2.80
2023-03-04T04:43:53.715Z,2.90
2023-03-04T04:48:56.177Z,2.80
2023-03-04T04:54:00.390Z,2.80
2023-03-04T04:59:04.793Z,2.80
2023-03-04T05:04:07.175Z,2.80
2023-03-04T05:09:09.614Z,2.80
2023-03-04T05:14:11.918Z,2.80
2023-03-04T05:19:14.278Z,2.80
2023-03-04T05:24:16.864Z,2.80
2023-03-04T05:29:19.265Z,2.80
2023-03-04T05:34:21.600Z,2.90
2023-03-04T05:39:23.955Z,2.90
2023-03-04T05:44:26.839Z,2.90
2023-03-04T05:49:29.120Z,2.90
2023-03-04T05:54:31.424Z,2.90
2023-03-04T05:59:33.825Z,2.90
2023-03-04T06:04:36.151Z,2.90
2023-03-04T06:09:38.518Z,2.90
2023-03-04T06:14:40.782Z,2.90
2023-03-04T06:19:43.108Z,2.90
2023-03-04T06:24:45.383Z,3.00
2023-03-04T06:29:47.680Z,3.00
2023-03-04T06:34:50.024Z,3.10
2023-03-04T06:39:52.591Z,3.00
2023-03-04T06:44:55.239Z,3.10
2023-03-04T06:49:57.537Z,3.20
2023-03-04T06:54:59.839Z,3.20
2023-03-04T07:00:03.434Z,3.30
2023-03-04T07:05:06.171Z,3.40
2023-03-04T07:10:10.168Z,3.40
2023-03-04T07:15:12.552Z,3.50
2023-03-04T07:20:14.889Z,3.60
2023-03-04T07:25:18.110Z,3.60
2023-03-04T07:30:20.706Z,3.50
2023-03-04T07:35:23.109Z,3.60
2023-03-04T07:40:25.565Z,3.60
2023-03-04T07:45:28.503Z,3.70
2023-03-04T07:50:30.889Z,3.80
2023-03-04T07:55:33.265Z,3.70
2023-03-04T08:00:35.606Z,3.60
2023-03-04T08:05:40.265Z,3.70
2023-03-04T08:10:43.887Z,3.70
2023-03-04T08:15:46.227Z,3.80
2023-03-04T08:20:48.513Z,4.00
2023-03-04T08:25:50.851Z,4.00
2023-03-04T08:30:54.670Z,4.00
2023-03-04T08:35:57.180Z,4.10
2023-03-04T08:40:59.927Z,4.10
2023-03-04T08:46:03.562Z,4.00
2023-03-04T08:51:11.286Z,4.10
2023-03-04T08:56:14.484Z,4.10
2023-03-04T09:01:17.028Z,4.10
2023-03-04T09:06:19.552Z,4.20
2023-03-04T09:11:21.834Z,4.30
2023-03-04T09:16:24.224Z,4.30
2023-03-04T09:21:26.556Z,4.20
2023-03-04T09:26:30.266Z,4.20
2023-03-04T09:31:33.055Z,4.20
2023-03-04T09:36:35.562Z,4.10
2023-03-04T09:41:45.606Z,4.30
2023-03-04T09:46:48.985Z,4.40
2023-03-04T09:51:54.910Z,4.60
2023-03-04T09:57:19.688Z,4.70
2023-03-04T10:02:29.984Z,4.60
2023-03-04T10:07:38.806Z,4.80
2023-03-04T10:12:45.725Z,4.90
2023-03-04T10:17:53.663Z,4.80
2023-03-04T10:23:08.760Z,4.90
2023-03-04T10:28:16.883Z,5.20
2023-03-04T10:33:25.689Z,5.30
2023-03-04T10:38:37.427Z,5.40
2023-03-04T10:43:39.831Z,5.50
2023-03-04T10:48:43.921Z,5.60
2023-03-04T10:53:48.625Z,5.70
2023-03-04T10:58:50.922Z,5.80
2023-03-04T11:03:54.639Z,6.00
2023-03-04T11:09:00.237Z,5.80
2023-03-04T11:14:17.045Z,5.70
2023-03-04T11:19:23.307Z,5.70
2023-03-04T11:24:29.811Z,5.60
2023-03-04T11:30:03.408Z,5.80
2023-03-04T11:35:27.092Z,5.90
2023-03-04T11:40:43.105Z,6.10
2023-03-04T11:46:05.637Z,6.10
2023-03-04T11:51:32.683Z,6.00
2023-03-04T11:57:00.219Z,6.40
2023-03-04T12:02:12.768Z,6.50
2023-03-04T12:07:26.860Z,6.70
2023-03-04T12:12:58.621Z,6.80
2023-03-04T12:18:06.694Z,6.80
2023-03-04T12:23:19.297Z,6.80
2023-03-04T12:28:36.649Z,7.00
2023-03-04T12:33:41.789Z,7.00
2023-03-04T12:39:11.830Z,6.70
2023-03-04T12:44:19.588Z,6.50
2023-03-04T12:49:47.789Z,6.40
2023-03-04T12:54:55.988Z,6.20
2023-03-04T13:00:13.183Z,6.10
2023-03-04T13:05:19.376Z,6.10
2023-03-04T13:10:23.634Z,5.60
2023-03-04T13:15:25.864Z,5.20
2023-03-04T13:20:30.916Z,5.40
2023-03-04T13:25:46.609Z,5.70
2023-03-04T13:30:51.749Z,6.00
2023-03-04T13:36:01.755Z,6.10
2023-03-04T13:41:24.934Z,5.90
2023-03-04T13:46:27.586Z,5.80
2023-03-04T13:51:34.698Z,5.70
2023-03-04T13:56:41.766Z,5.50
2023-03-04T14:01:43.992Z,5.40
2023-03-04T14:06:48.349Z,5.30
2023-03-04T14:11:57.199Z,5.30
2023-03-04T14:17:03.226Z,5.20
2023-03-04T14:22:32.984Z,5.10
2023-03-04T14:27:36.440Z,5.20
2023-03-04T14:32:43.046Z,5.20
2023-03-04T14:37:57.710Z,5.20
2023-03-04T14:43:06.225Z,5.50
2023-03-04T14:48:09.052Z,5.50
2023-03-04T14:53:16.953Z,5.50
2023-03-04T14:58:22.764Z,5.50
2023-03-04T15:03:35.575Z,5.70
2023-03-04T15:08:39.189Z,6.00
2023-03-04T15:13:49.740Z,5.70
2023-03-04T15:19:03.523Z,5.40
2023-03-04T15:24:08.276Z,5.70
2023-03-04T15:29:17.780Z,5.50
2023-03-04T15:34:20.513Z,5.60
2023-03-04T15:39:23.406Z,5.40
2023-03-04T15:44:25.788Z,5.30
2023-03-04T15:49:29.803Z,5.50
2023-03-04T15:54:32.256Z,5.30
2023-03-04T15:59:34.618Z,4.90
2023-03-04T16:04:38.884Z,4.60
2023-03-04T16:09:41.232Z,4.60
2023-03-04T16:14:44.399Z,4.40
2023-03-04T16:19:47.268Z,4.40
2023-03-04T16:24:50.155Z,4.20
2023-03-04T16:29:52.510Z,4.00
2023-03-04T16:34:54.818Z,3.90
2023-03-04T16:39:58.799Z,3.80
2023-03-04T16:45:01.078Z,3.60
2023-03-04T16:50:03.591Z,3.50
2023-03-04T16:55:06.217Z,3.30
2023-03-04T17:00:10.492Z,3.20
2023-03-04T17:05:20.800Z,3.10
2023-03-04T17:10:23.609Z,3.00
2023-03-04T17:15:25.971Z,2.50
2023-03-04T17:20:28.474Z,2.20
2023-03-04T17:25:30.709Z,2.20
2023-03-04T17:30:33.117Z,2.30
2023-03-04T17:35:38.049Z,2.30
2023-03-04T17:40:41.550Z,2.30
2023-03-04T17:45:44.144Z,2.30
2023-03-04T17:50:50.889Z,2.20
2023-03-04T17:55:55.610Z,2.20
2023-03-04T18:01:27.248Z,2.10
2023-03-04T18:06:29.699Z,2.10
2023-03-04T18:11:33.608Z,2.00
2023-03-04T18:16:36.019Z,2.00
2023-03-04T18:21:38.471Z,1.90
2023-03-04T18:26:40.721Z,1.80
2023-03-04T18:31:43.308Z,1.70
2023-03-04T18:36:47.602Z,1.60
2023-03-04T18:41:49.895Z,1.60
2023-03-04T18:46:55.272Z,1.50
2023-03-04T18:51:57.571Z,1.50
2023-03-04T18:57:08.660Z,1.30
2023-03-04T19:02:21.734Z,1.30
2023-03-04T19:07:24.037Z,1.10
2023-03-04T19:12:26.415Z,1.00
2023-03-04T19:17:32.584Z,1.00
2023-03-04T19:22:35.848Z,1.00
2023-03-04T19:27:38.394Z,0.70
2023-03-04T19:32:40.701Z,0.30
2023-03-04T19:37:43.046Z,0.20
2023-03-04T19:42:45.388Z,-0.20
2023-03-04T19:47:47.690Z,-0.30
2023-03-04T19:52:49.949Z,-0.30
2023-03-04T19:57:52.357Z,-0.20
2023-03-04T20:02:55.615Z,-0.30
2023-03-04T20:07:57.859Z,-0.10
2023-03-04T20:13:00.192Z,-0.20
2023-03-04T20:18:02.532Z,-0.30
2023-03-04T20:23:05.698Z,-0.70
2023-03-04T20:28:08.063Z,-0.30
2023-03-04T20:33:10.665Z,-0.30
2023-03-04T20:38:13.180Z,-0.30
2023-03-04T20:43:15.451Z,-0.60
2023-03-04T20:48:18.104Z,-0.80
2023-03-04T20:53:20.372Z,-1.00
2023-03-04T20:58:22.673Z,-0.80
2023-03-04T21:03:24.963Z,-0.80
2023-03-04T21:08:27.370Z,-0.90
2023-03-04T21:13:30.682Z,-0.90
2023-03-04T21:18:32.997Z,-0.80
2023-03-04T21:23:37.480Z,-0.90
2023-03-04T21:28:41.942Z,-1.20
2023-03-04T21:33:45.666Z,-1.10
2023-03-04T21:38:48.772Z,-1.20
2023-03-04T21:43:51.884Z,-1.20
2023-03-04T21:48:54.218Z,-1.00
2023-03-04T21:53:56.589Z,-1.40
2023-03-04T21:59:00.383Z,-1.30
2023-03-04T22:04:03.378Z,-1.40
2023-03-04T22:09:05.989Z,-1.40
2023-03-04T22:14:08.302Z,-1.30
2023-03-04T22:19:10.688Z,-1.50
2023-03-04T22:24:13.010Z,-1.60
2023-03-04T22:29:15.563Z,-1.60
2023-03-04T22:34:18.645Z,-1.50
2023-03-04T22:39:22.950Z,-1.40
2023-03-04T22:44:25.592Z,-1.50
2023-03-04T22:49:28.012Z,-1.60
2023-03-04T22:54:30.273Z,-1.80
2023-03-04T22:59:32.789Z,-1.80
2023-03-04T23:04:35.243Z,-1.70
2023-03-04T23:09:37.533Z,-2.00
2023-03-04T23:14:42.141Z,-2.10
2023-03-04T23:19:44.599Z,-1.90
2023-03-04T23:24:46.893Z,-1.80
2023-03-04T23:29:49.198Z,-1.80
2023-03-04T23:34:53.662Z,-1.90
2023-03-04T23:39:56.038Z,-1.90
2023-03-04T23:44:58.372Z,-2.10
2023-03-04T23:50:00.794Z,-2.10
2023-03-04T23:55:03.175Z,-2.10
